Elmadag, Turkey
Current Conditions -  °F | °C
As of 4:20 PM on Sunday 23 Nov 2014 (Local Time) from LTAC Reporting Station
Broken Clouds Broken Clouds  
Wind Chill: 38°   Ceiling: 10000
Heat Index: 45°   Visibility: 6mi
Dew Point: 30°   Wind: 13mph
Humidity: 57%   Direction: 10°N
Pressure: 30.12"   Gusts: NA
Location:  39.93°N, 33.25°E
Report Text: LTAC 231320Z 01011KT 9999 SCT040 BKN100 07/M01 Q1020 NOSIG
Loading
Personal Weather Stations






























Interactive Weather Map New forecast layout! Learn more

10-Day Weather Forecast

Advertisements
Track Severe Weather on mobile